sensor_id;sensor_type;location;lat;lon;timestamp;temperature;humidity
73780;SHT30;62093;37.614;15.072;2023-07-22T00:02:23;28.23;56.43
73780;SHT30;62093;37.614;15.072;2023-07-22T00:04:50;28.25;56.46
73780;SHT30;62093;37.614;15.072;2023-07-22T00:07:16;28.26;56.44
73780;SHT30;62093;37.614;15.072;2023-07-22T00:09:42;28.23;56.44
73780;SHT30;62093;37.614;15.072;2023-07-22T00:12:09;28.23;56.44
73780;SHT30;62093;37.614;15.072;2023-07-22T00:14:40;28.23;56.46
73780;SHT30;62093;37.614;15.072;2023-07-22T00:17:07;28.22;56.48
73780;SHT30;62093;37.614;15.072;2023-07-22T00:19:33;28.22;56.49
73780;SHT30;62093;37.614;15.072;2023-07-22T00:21:59;28.22;56.51
73780;SHT30;62093;37.614;15.072;2023-07-22T00:24:25;28.22;56.55
73780;SHT30;62093;37.614;15.072;2023-07-22T00:26:51;28.20;56.51
73780;SHT30;62093;37.614;15.072;2023-07-22T00:29:17;28.20;56.52
73780;SHT30;62093;37.614;15.072;2023-07-22T00:31:43;28.22;56.55
73780;SHT30;62093;37.614;15.072;2023-07-22T00:34:09;28.22;56.54
73780;SHT30;62093;37.614;15.072;2023-07-22T00:36:36;28.19;56.52
73780;SHT30;62093;37.614;15.072;2023-07-22T00:39:03;28.22;56.54
73780;SHT30;62093;37.614;15.072;2023-07-22T00:41:29;28.20;56.53
73780;SHT30;62093;37.614;15.072;2023-07-22T00:43:55;28.19;56.55
73780;SHT30;62093;37.614;15.072;2023-07-22T00:46:21;28.22;56.55
73780;SHT30;62093;37.614;15.072;2023-07-22T00:48:47;28.22;56.54
73780;SHT30;62093;37.614;15.072;2023-07-22T00:51:14;28.20;56.58
73780;SHT30;62093;37.614;15.072;2023-07-22T00:53:40;28.19;56.57
73780;SHT30;62093;37.614;15.072;2023-07-22T00:56:06;28.19;56.57
73780;SHT30;62093;37.614;15.072;2023-07-22T00:58:33;28.19;56.56
73780;SHT30;62093;37.614;15.072;2023-07-22T01:00:59;28.18;56.58
73780;SHT30;62093;37.614;15.072;2023-07-22T01:03:25;28.20;56.58
73780;SHT30;62093;37.614;15.072;2023-07-22T01:05:52;28.19;56.58
73780;SHT30;62093;37.614;15.072;2023-07-22T01:08:19;28.19;56.62
73780;SHT30;62093;37.614;15.072;2023-07-22T01:10:45;28.18;56.62
73780;SHT30;62093;37.614;15.072;2023-07-22T01:13:10;28.19;56.64
73780;SHT30;62093;37.614;15.072;2023-07-22T01:15:37;28.18;56.62
73780;SHT30;62093;37.614;15.072;2023-07-22T01:18:03;28.18;56.59
73780;SHT30;62093;37.614;15.072;2023-07-22T01:20:30;28.19;56.68
73780;SHT30;62093;37.614;15.072;2023-07-22T01:22:56;28.18;56.59
73780;SHT30;62093;37.614;15.072;2023-07-22T01:25:22;28.18;56.62
73780;SHT30;62093;37.614;15.072;2023-07-22T01:27:51;28.18;56.63
73780;SHT30;62093;37.614;15.072;2023-07-22T01:30:17;28.19;56.65
73780;SHT30;62093;37.614;15.072;2023-07-22T01:32:46;28.18;56.63
73780;SHT30;62093;37.614;15.072;2023-07-22T01:35:12;28.18;56.62
73780;SHT30;62093;37.614;15.072;2023-07-22T01:37:38;28.19;56.60
73780;SHT30;62093;37.614;15.072;2023-07-22T01:40:05;28.19;56.61
73780;SHT30;62093;37.614;15.072;2023-07-22T01:42:41;28.19;56.64
73780;SHT30;62093;37.614;15.072;2023-07-22T01:45:08;28.18;56.66
73780;SHT30;62093;37.614;15.072;2023-07-22T01:47:34;28.19;56.71
73780;SHT30;62093;37.614;15.072;2023-07-22T01:50:02;28.15;56.68
73780;SHT30;62093;37.614;15.072;2023-07-22T01:52:28;28.19;56.67
73780;SHT30;62093;37.614;15.072;2023-07-22T01:54:54;28.18;56.67
73780;SHT30;62093;37.614;15.072;2023-07-22T01:57:20;28.16;56.70
73780;SHT30;62093;37.614;15.072;2023-07-22T01:59:46;28.16;56.70
73780;SHT30;62093;37.614;15.072;2023-07-22T02:02:11;28.18;56.68
73780;SHT30;62093;37.614;15.072;2023-07-22T02:04:37;28.16;56.70
73780;SHT30;62093;37.614;15.072;2023-07-22T02:07:03;28.16;56.73
73780;SHT30;62093;37.614;15.072;2023-07-22T02:09:29;28.16;56.71
73780;SHT30;62093;37.614;15.072;2023-07-22T02:11:55;28.16;56.73
73780;SHT30;62093;37.614;15.072;2023-07-22T02:14:21;28.15;56.74
73780;SHT30;62093;37.614;15.072;2023-07-22T02:16:47;28.16;56.74
73780;SHT30;62093;37.614;15.072;2023-07-22T02:19:13;28.18;56.75
73780;SHT30;62093;37.614;15.072;2023-07-22T02:21:40;28.16;56.75
73780;SHT30;62093;37.614;15.072;2023-07-22T02:24:08;28.16;56.78
73780;SHT30;62093;37.614;15.072;2023-07-22T02:26:34;28.16;56.76
73780;SHT30;62093;37.614;15.072;2023-07-22T02:29:00;28.19;56.72
73780;SHT30;62093;37.614;15.072;2023-07-22T02:31:25;28.18;56.71
73780;SHT30;62093;37.614;15.072;2023-07-22T02:33:51;28.16;56.78
73780;SHT30;62093;37.614;15.072;2023-07-22T02:36:17;28.18;56.78
73780;SHT30;62093;37.614;15.072;2023-07-22T02:38:43;28.15;56.77
73780;SHT30;62093;37.614;15.072;2023-07-22T02:41:12;28.15;56.79
73780;SHT30;62093;37.614;15.072;2023-07-22T02:43:38;28.16;56.79
73780;SHT30;62093;37.614;15.072;2023-07-22T02:46:06;28.16;56.77
73780;SHT30;62093;37.614;15.072;2023-07-22T02:48:34;28.15;56.81
73780;SHT30;62093;37.614;15.072;2023-07-22T02:51:07;28.13;56.79
73780;SHT30;62093;37.614;15.072;2023-07-22T02:53:34;28.15;56.80
73780;SHT30;62093;37.614;15.072;2023-07-22T02:56:03;28.15;56.81
73780;SHT30;62093;37.614;15.072;2023-07-22T02:58:29;28.15;56.84
73780;SHT30;62093;37.614;15.072;2023-07-22T03:00:55;28.18;56.86
73780;SHT30;62093;37.614;15.072;2023-07-22T03:03:23;28.13;56.84
73780;SHT30;62093;37.614;15.072;2023-07-22T03:05:49;28.13;56.80
73780;SHT30;62093;37.614;15.072;2023-07-22T03:08:16;28.10;56.88
73780;SHT30;62093;37.614;15.072;2023-07-22T03:10:42;28.15;56.85
73780;SHT30;62093;37.614;15.072;2023-07-22T03:13:17;28.13;56.85
73780;SHT30;62093;37.614;15.072;2023-07-22T03:15:43;28.13;56.87
73780;SHT30;62093;37.614;15.072;2023-07-22T03:18:10;28.13;56.87
73780;SHT30;62093;37.614;15.072;2023-07-22T03:20:37;28.12;56.87
73780;SHT30;62093;37.614;15.072;2023-07-22T03:23:06;28.10;56.93
73780;SHT30;62093;37.614;15.072;2023-07-22T03:25:35;28.15;56.86
73780;SHT30;62093;37.614;15.072;2023-07-22T03:28:03;28.12;56.86
73780;SHT30;62093;37.614;15.072;2023-07-22T03:30:30;28.12;56.92
73780;SHT30;62093;37.614;15.072;2023-07-22T03:32:56;28.13;56.90
73780;SHT30;62093;37.614;15.072;2023-07-22T03:35:23;28.10;56.91
73780;SHT30;62093;37.614;15.072;2023-07-22T03:37:49;28.12;56.89
73780;SHT30;62093;37.614;15.072;2023-07-22T03:40:14;28.12;56.93
73780;SHT30;62093;37.614;15.072;2023-07-22T03:42:53;28.10;56.94
73780;SHT30;62093;37.614;15.072;2023-07-22T03:45:21;28.10;56.90
73780;SHT30;62093;37.614;15.072;2023-07-22T03:47:51;28.10;56.92
73780;SHT30;62093;37.614;15.072;2023-07-22T03:50:18;28.10;56.96
73780;SHT30;62093;37.614;15.072;2023-07-22T03:52:44;28.10;56.96
73780;SHT30;62093;37.614;15.072;2023-07-22T03:55:10;28.10;56.94
73780;SHT30;62093;37.614;15.072;2023-07-22T03:57:36;28.08;56.94
73780;SHT30;62093;37.614;15.072;2023-07-22T04:00:03;28.08;56.97
73780;SHT30;62093;37.614;15.072;2023-07-22T04:02:40;28.09;56.95
73780;SHT30;62093;37.614;15.072;2023-07-22T04:05:07;28.09;56.96
73780;SHT30;62093;37.614;15.072;2023-07-22T04:07:33;28.06;56.97
73780;SHT30;62093;37.614;15.072;2023-07-22T04:09:59;28.08;56.95
73780;SHT30;62093;37.614;15.072;2023-07-22T04:12:25;28.06;56.97
73780;SHT30;62093;37.614;15.072;2023-07-22T04:14:51;28.08;56.95
73780;SHT30;62093;37.614;15.072;2023-07-22T04:17:16;28.06;56.99
73780;SHT30;62093;37.614;15.072;2023-07-22T04:19:42;28.04;57.00
73780;SHT30;62093;37.614;15.072;2023-07-22T04:22:08;28.05;56.97
73780;SHT30;62093;37.614;15.072;2023-07-22T04:24:35;28.06;57.00
73780;SHT30;62093;37.614;15.072;2023-07-22T04:27:01;28.04;56.99
73780;SHT30;62093;37.614;15.072;2023-07-22T04:29:27;28.04;57.00
73780;SHT30;62093;37.614;15.072;2023-07-22T04:31:59;28.05;57.01
73780;SHT30;62093;37.614;15.072;2023-07-22T04:34:29;28.05;56.99
73780;SHT30;62093;37.614;15.072;2023-07-22T04:36:55;28.04;56.98
73780;SHT30;62093;37.614;15.072;2023-07-22T04:39:21;28.05;57.00
73780;SHT30;62093;37.614;15.072;2023-07-22T04:41:47;28.04;57.00
73780;SHT30;62093;37.614;15.072;2023-07-22T04:44:13;28.02;57.00
73780;SHT30;62093;37.614;15.072;2023-07-22T04:46:39;28.05;57.00
73780;SHT30;62093;37.614;15.072;2023-07-22T04:49:06;28.05;57.03
73780;SHT30;62093;37.614;15.072;2023-07-22T04:51:32;28.04;57.03
73780;SHT30;62093;37.614;15.072;2023-07-22T04:53:57;28.02;57.04
73780;SHT30;62093;37.614;15.072;2023-07-22T04:56:23;28.01;57.04
73780;SHT30;62093;37.614;15.072;2023-07-22T04:58:49;28.04;57.05
73780;SHT30;62093;37.614;15.072;2023-07-22T05:01:15;28.04;57.03
73780;SHT30;62093;37.614;15.072;2023-07-22T05:03:41;28.01;57.03
73780;SHT30;62093;37.614;15.072;2023-07-22T05:06:07;28.02;57.03
73780;SHT30;62093;37.614;15.072;2023-07-22T05:08:34;28.02;57.03
73780;SHT30;62093;37.614;15.072;2023-07-22T05:11:00;28.02;57.04
73780;SHT30;62093;37.614;15.072;2023-07-22T05:13:26;27.99;57.03
73780;SHT30;62093;37.614;15.072;2023-07-22T05:15:52;28.04;57.06
73780;SHT30;62093;37.614;15.072;2023-07-22T05:18:17;28.01;57.04
73780;SHT30;62093;37.614;15.072;2023-07-22T05:20:43;27.99;57.06
73780;SHT30;62093;37.614;15.072;2023-07-22T05:23:09;28.01;57.06
73780;SHT30;62093;37.614;15.072;2023-07-22T05:25:35;28.01;57.08
73780;SHT30;62093;37.614;15.072;2023-07-22T05:28:01;28.01;57.09
73780;SHT30;62093;37.614;15.072;2023-07-22T05:30:27;28.01;57.05
73780;SHT30;62093;37.614;15.072;2023-07-22T05:32:52;27.97;57.08
73780;SHT30;62093;37.614;15.072;2023-07-22T05:35:19;28.01;57.10
73780;SHT30;62093;37.614;15.072;2023-07-22T05:37:44;27.98;57.08
73780;SHT30;62093;37.614;15.072;2023-07-22T05:40:11;27.99;57.10
73780;SHT30;62093;37.614;15.072;2023-07-22T05:42:36;27.98;57.13
73780;SHT30;62093;37.614;15.072;2023-07-22T05:45:03;27.97;57.10
73780;SHT30;62093;37.614;15.072;2023-07-22T05:47:29;27.98;57.11
73780;SHT30;62093;37.614;15.072;2023-07-22T05:49:54;27.98;57.16
73780;SHT30;62093;37.614;15.072;2023-07-22T05:52:20;27.99;57.14
73780;SHT30;62093;37.614;15.072;2023-07-22T05:54:46;27.98;57.13
73780;SHT30;62093;37.614;15.072;2023-07-22T05:57:12;27.98;57.14
73780;SHT30;62093;37.614;15.072;2023-07-22T05:59:38;27.97;57.10
73780;SHT30;62093;37.614;15.072;2023-07-22T06:02:05;27.99;57.18
73780;SHT30;62093;37.614;15.072;2023-07-22T06:04:31;27.97;57.16
73780;SHT30;62093;37.614;15.072;2023-07-22T06:06:57;27.98;57.16
73780;SHT30;62093;37.614;15.072;2023-07-22T06:09:23;27.98;57.14
73780;SHT30;62093;37.614;15.072;2023-07-22T06:11:49;27.99;57.14
73780;SHT30;62093;37.614;15.072;2023-07-22T06:14:15;27.99;57.15
73780;SHT30;62093;37.614;15.072;2023-07-22T06:16:41;27.98;57.18
73780;SHT30;62093;37.614;15.072;2023-07-22T06:19:07;27.97;57.18
73780;SHT30;62093;37.614;15.072;2023-07-22T06:21:32;27.98;57.19
73780;SHT30;62093;37.614;15.072;2023-07-22T06:23:58;27.99;57.16
73780;SHT30;62093;37.614;15.072;2023-07-22T06:26:24;27.98;57.18
73780;SHT30;62093;37.614;15.072;2023-07-22T06:28:50;27.99;57.18
73780;SHT30;62093;37.614;15.072;2023-07-22T06:31:15;27.98;57.18
73780;SHT30;62093;37.614;15.072;2023-07-22T06:33:43;27.98;57.16
73780;SHT30;62093;37.614;15.072;2023-07-22T06:36:09;27.99;57.18
73780;SHT30;62093;37.614;15.072;2023-07-22T06:38:35;27.99;57.18
73780;SHT30;62093;37.614;15.072;2023-07-22T06:41:01;27.98;57.19
73780;SHT30;62093;37.614;15.072;2023-07-22T06:43:26;27.99;57.19
73780;SHT30;62093;37.614;15.072;2023-07-22T06:45:52;28.01;57.17
73780;SHT30;62093;37.614;15.072;2023-07-22T06:48:18;28.01;57.21
73780;SHT30;62093;37.614;15.072;2023-07-22T06:50:50;28.01;57.19
73780;SHT30;62093;37.614;15.072;2023-07-22T06:53:16;27.99;57.18
73780;SHT30;62093;37.614;15.072;2023-07-22T06:55:51;28.02;57.19
73780;SHT30;62093;37.614;15.072;2023-07-22T06:58:21;28.01;57.21
73780;SHT30;62093;37.614;15.072;2023-07-22T07:00:53;28.01;57.23
73780;SHT30;62093;37.614;15.072;2023-07-22T07:03:22;27.99;57.20
73780;SHT30;62093;37.614;15.072;2023-07-22T07:05:57;28.01;57.19
73780;SHT30;62093;37.614;15.072;2023-07-22T07:08:23;28.02;57.19
73780;SHT30;62093;37.614;15.072;2023-07-22T07:10:50;28.04;57.19
73780;SHT30;62093;37.614;15.072;2023-07-22T07:13:16;28.04;57.22
73780;SHT30;62093;37.614;15.072;2023-07-22T07:15:46;28.02;57.21
73780;SHT30;62093;37.614;15.072;2023-07-22T07:18:13;28.04;57.24
73780;SHT30;62093;37.614;15.072;2023-07-22T07:20:39;28.04;57.17
73780;SHT30;62093;37.614;15.072;2023-07-22T07:23:05;28.05;57.20
73780;SHT30;62093;37.614;15.072;2023-07-22T07:25:31;28.05;57.19
73780;SHT30;62093;37.614;15.072;2023-07-22T07:27:56;28.04;57.19
73780;SHT30;62093;37.614;15.072;2023-07-22T07:30:22;28.06;57.19
73780;SHT30;62093;37.614;15.072;2023-07-22T07:32:48;28.05;57.17
73780;SHT30;62093;37.614;15.072;2023-07-22T07:35:14;28.05;57.15
73780;SHT30;62093;37.614;15.072;2023-07-22T07:37:40;28.05;57.19
73780;SHT30;62093;37.614;15.072;2023-07-22T07:40:06;28.05;57.21
73780;SHT30;62093;37.614;15.072;2023-07-22T07:42:34;28.05;57.18
73780;SHT30;62093;37.614;15.072;2023-07-22T07:45:00;28.09;57.25
73780;SHT30;62093;37.614;15.072;2023-07-22T07:47:26;28.06;57.14
73780;SHT30;62093;37.614;15.072;2023-07-22T07:49:52;28.05;57.21
73780;SHT30;62093;37.614;15.072;2023-07-22T07:52:17;28.08;57.18
73780;SHT30;62093;37.614;15.072;2023-07-22T07:54:43;28.09;57.16
73780;SHT30;62093;37.614;15.072;2023-07-22T07:57:09;28.09;57.16
73780;SHT30;62093;37.614;15.072;2023-07-22T07:59:35;28.09;57.17
73780;SHT30;62093;37.614;15.072;2023-07-22T08:02:01;28.10;57.13
73780;SHT30;62093;37.614;15.072;2023-07-22T08:04:29;28.09;57.13
73780;SHT30;62093;37.614;15.072;2023-07-22T08:06:56;28.09;57.15
73780;SHT30;62093;37.614;15.072;2023-07-22T08:09:22;28.09;57.12
73780;SHT30;62093;37.614;15.072;2023-07-22T08:11:48;28.12;57.17
73780;SHT30;62093;37.614;15.072;2023-07-22T08:14:14;28.13;57.14
73780;SHT30;62093;37.614;15.072;2023-07-22T08:16:40;28.12;57.11
73780;SHT30;62093;37.614;15.072;2023-07-22T08:19:06;28.12;57.09
73780;SHT30;62093;37.614;15.072;2023-07-22T08:21:32;28.10;57.11
73780;SHT30;62093;37.614;15.072;2023-07-22T08:23:58;28.15;57.12
73780;SHT30;62093;37.614;15.072;2023-07-22T08:26:24;28.15;57.07
73780;SHT30;62093;37.614;15.072;2023-07-22T08:28:50;28.12;57.11
73780;SHT30;62093;37.614;15.072;2023-07-22T08:31:16;28.15;57.03
73780;SHT30;62093;37.614;15.072;2023-07-22T08:33:42;28.15;57.01
73780;SHT30;62093;37.614;15.072;2023-07-22T08:36:08;28.15;57.03
73780;SHT30;62093;37.614;15.072;2023-07-22T08:38:34;28.15;57.07
73780;SHT30;62093;37.614;15.072;2023-07-22T08:41:00;28.19;57.02
73780;SHT30;62093;37.614;15.072;2023-07-22T08:43:28;28.18;57.03
73780;SHT30;62093;37.614;15.072;2023-07-22T08:45:54;28.18;57.02
73780;SHT30;62093;37.614;15.072;2023-07-22T08:48:26;28.22;56.99
73780;SHT30;62093;37.614;15.072;2023-07-22T08:53:19;28.19;56.96
73780;SHT30;62093;37.614;15.072;2023-07-22T08:55:46;28.20;56.94
73780;SHT30;62093;37.614;15.072;2023-07-22T08:58:13;28.20;56.93
73780;SHT30;62093;37.614;15.072;2023-07-22T09:00:40;28.22;56.93
73780;SHT30;62093;37.614;15.072;2023-07-22T09:03:06;28.23;56.89
73780;SHT30;62093;37.614;15.072;2023-07-22T09:05:35;28.23;56.86
73780;SHT30;62093;37.614;15.072;2023-07-22T09:08:02;28.23;56.86
73780;SHT30;62093;37.614;15.072;2023-07-22T09:10:29;28.26;56.82
73780;SHT30;62093;37.614;15.072;2023-07-22T09:12:56;28.26;56.80
73780;SHT30;62093;37.614;15.072;2023-07-22T09:15:24;28.28;56.78
73780;SHT30;62093;37.614;15.072;2023-07-22T09:17:50;28.26;56.77
73780;SHT30;62093;37.614;15.072;2023-07-22T09:20:16;28.29;56.77
73780;SHT30;62093;37.614;15.072;2023-07-22T09:22:44;28.28;56.72
73780;SHT30;62093;37.614;15.072;2023-07-22T09:27:41;28.32;56.71
73780;SHT30;62093;37.614;15.072;2023-07-22T09:32:55;28.32;56.67
73780;SHT30;62093;37.614;15.072;2023-07-22T09:35:23;28.35;56.64
73780;SHT30;62093;37.614;15.072;2023-07-22T09:37:49;28.36;56.58
73780;SHT30;62093;37.614;15.072;2023-07-22T09:40:18;28.36;56.54
73780;SHT30;62093;37.614;15.072;2023-07-22T09:42:56;28.36;56.50
73780;SHT30;62093;37.614;15.072;2023-07-22T09:45:24;28.38;56.50
73780;SHT30;62093;37.614;15.072;2023-07-22T09:47:52;28.38;56.43
73780;SHT30;62093;37.614;15.072;2023-07-22T09:50:20;28.39;56.39
73780;SHT30;62093;37.614;15.072;2023-07-22T09:52:59;28.40;56.36
73780;SHT30;62093;37.614;15.072;2023-07-22T09:55:27;28.43;56.39
73780;SHT30;62093;37.614;15.072;2023-07-22T09:57:58;28.45;56.29
73780;SHT30;62093;37.614;15.072;2023-07-22T10:00:28;28.46;56.28
73780;SHT30;62093;37.614;15.072;2023-07-22T10:02:57;28.46;56.24
73780;SHT30;62093;37.614;15.072;2023-07-22T10:05:25;28.46;56.24
73780;SHT30;62093;37.614;15.072;2023-07-22T10:07:53;28.50;56.18
73780;SHT30;62093;37.614;15.072;2023-07-22T10:10:29;28.49;56.13
73780;SHT30;62093;37.614;15.072;2023-07-22T10:12:56;28.49;56.17
73780;SHT30;62093;37.614;15.072;2023-07-22T10:15:34;28.52;56.12
73780;SHT30;62093;37.614;15.072;2023-07-22T10:18:02;28.52;56.10
73780;SHT30;62093;37.614;15.072;2023-07-22T10:20:29;28.50;56.05
73780;SHT30;62093;37.614;15.072;2023-07-22T10:22:56;28.55;56.07
73780;SHT30;62093;37.614;15.072;2023-07-22T10:25:22;28.52;56.06
73780;SHT30;62093;37.614;15.072;2023-07-22T10:27:49;28.57;56.00
73780;SHT30;62093;37.614;15.072;2023-07-22T10:30:16;28.55;55.96
73780;SHT30;62093;37.614;15.072;2023-07-22T10:32:52;28.55;55.99
73780;SHT30;62093;37.614;15.072;2023-07-22T10:38:16;28.56;55.93
73780;SHT30;62093;37.614;15.072;2023-07-22T10:40:53;28.57;55.86
73780;SHT30;62093;37.614;15.072;2023-07-22T10:43:28;28.59;55.82
73780;SHT30;62093;37.614;15.072;2023-07-22T10:45:59;28.57;55.81
73780;SHT30;62093;37.614;15.072;2023-07-22T10:48:35;28.60;55.82
73780;SHT30;62093;37.614;15.072;2023-07-22T10:51:13;28.57;55.78
73780;SHT30;62093;37.614;15.072;2023-07-22T10:53:42;28.59;55.79
73780;SHT30;62093;37.614;15.072;2023-07-22T10:56:19;28.59;55.77
73780;SHT30;62093;37.614;15.072;2023-07-22T11:11:54;28.64;55.61
73780;SHT30;62093;37.614;15.072;2023-07-22T11:14:24;28.64;55.60
73780;SHT30;62093;37.614;15.072;2023-07-22T11:16:50;28.63;55.61
73780;SHT30;62093;37.614;15.072;2023-07-22T11:19:18;28.64;55.57
73780;SHT30;62093;37.614;15.072;2023-07-22T11:21:45;28.66;55.52
73780;SHT30;62093;37.614;15.072;2023-07-22T11:24:11;28.64;55.47
73780;SHT30;62093;37.614;15.072;2023-07-22T11:26:38;28.64;55.48
73780;SHT30;62093;37.614;15.072;2023-07-22T11:29:05;28.67;55.48
73780;SHT30;62093;37.614;15.072;2023-07-22T11:31:36;28.67;55.44
73780;SHT30;62093;37.614;15.072;2023-07-22T11:34:04;28.69;55.47
73780;SHT30;62093;37.614;15.072;2023-07-22T11:36:31;28.69;55.45
73780;SHT30;62093;37.614;15.072;2023-07-22T11:39:04;28.70;55.37
73780;SHT30;62093;37.614;15.072;2023-07-22T11:41:30;28.71;55.38
73780;SHT30;62093;37.614;15.072;2023-07-22T11:43:58;28.70;55.36
73780;SHT30;62093;37.614;15.072;2023-07-22T11:46:25;28.70;55.36
73780;SHT30;62093;37.614;15.072;2023-07-22T11:48:53;28.71;55.37
73780;SHT30;62093;37.614;15.072;2023-07-22T11:51:23;28.70;55.27
73780;SHT30;62093;37.614;15.072;2023-07-22T11:53:54;28.77;55.32
73780;SHT30;62093;37.614;15.072;2023-07-22T11:56:28;28.76;55.35
73780;SHT30;62093;37.614;15.072;2023-07-22T11:58:55;28.74;55.30
73780;SHT30;62093;37.614;15.072;2023-07-22T12:01:22;28.77;55.28
73780;SHT30;62093;37.614;15.072;2023-07-22T12:03:49;28.77;55.25
73780;SHT30;62093;37.614;15.072;2023-07-22T12:06:20;28.77;55.25
73780;SHT30;62093;37.614;15.072;2023-07-22T12:08:52;28.80;55.26
73780;SHT30;62093;37.614;15.072;2023-07-22T12:11:24;28.80;55.15
73780;SHT30;62093;37.614;15.072;2023-07-22T12:14:10;28.79;55.21
73780;SHT30;62093;37.614;15.072;2023-07-22T12:16:38;28.80;55.16
73780;SHT30;62093;37.614;15.072;2023-07-22T12:19:05;28.81;55.12
73780;SHT30;62093;37.614;15.072;2023-07-22T12:21:32;28.80;55.13
73780;SHT30;62093;37.614;15.072;2023-07-22T12:23:58;28.84;55.16
73780;SHT30;62093;37.614;15.072;2023-07-22T12:26:25;28.81;55.07
73780;SHT30;62093;37.614;15.072;2023-07-22T12:28:51;28.83;55.09
73780;SHT30;62093;37.614;15.072;2023-07-22T12:31:17;28.89;55.03
73780;SHT30;62093;37.614;15.072;2023-07-22T12:33:43;28.87;55.02
73780;SHT30;62093;37.614;15.072;2023-07-22T12:36:09;28.87;55.02
73780;SHT30;62093;37.614;15.072;2023-07-22T12:38:35;28.86;54.98
73780;SHT30;62093;37.614;15.072;2023-07-22T12:41:01;28.87;54.98
73780;SHT30;62093;37.614;15.072;2023-07-22T12:43:28;28.89;54.95
73780;SHT30;62093;37.614;15.072;2023-07-22T12:45:55;28.91;54.94
73780;SHT30;62093;37.614;15.072;2023-07-22T12:48:21;28.94;54.87
73780;SHT30;62093;37.614;15.072;2023-07-22T12:50:47;28.91;54.91
73780;SHT30;62093;37.614;15.072;2023-07-22T12:53:13;28.90;54.91
73780;SHT30;62093;37.614;15.072;2023-07-22T12:55:39;28.93;54.85
73780;SHT30;62093;37.614;15.072;2023-07-22T12:58:05;28.93;54.85
73780;SHT30;62093;37.614;15.072;2023-07-22T13:00:31;28.96;54.82
73780;SHT30;62093;37.614;15.072;2023-07-22T13:02:57;28.94;54.77
73780;SHT30;62093;37.614;15.072;2023-07-22T13:05:24;28.97;54.76
73780;SHT30;62093;37.614;15.072;2023-07-22T13:07:50;28.94;54.78
73780;SHT30;62093;37.614;15.072;2023-07-22T13:10:19;28.99;54.66
73780;SHT30;62093;37.614;15.072;2023-07-22T13:12:50;28.99;54.74
73780;SHT30;62093;37.614;15.072;2023-07-22T13:15:16;28.96;54.66
73780;SHT30;62093;37.614;15.072;2023-07-22T13:17:42;29.00;54.68
73780;SHT30;62093;37.614;15.072;2023-07-22T13:20:08;28.99;54.65
73780;SHT30;62093;37.614;15.072;2023-07-22T13:22:35;29.00;54.64
73780;SHT30;62093;37.614;15.072;2023-07-22T13:25:02;28.99;54.61
73780;SHT30;62093;37.614;15.072;2023-07-22T13:27:29;29.01;54.62
73780;SHT30;62093;37.614;15.072;2023-07-22T13:29:55;29.01;54.58
73780;SHT30;62093;37.614;15.072;2023-07-22T13:32:21;29.01;54.56
73780;SHT30;62093;37.614;15.072;2023-07-22T13:34:47;29.06;54.54
73780;SHT30;62093;37.614;15.072;2023-07-22T13:37:13;29.04;54.52
73780;SHT30;62093;37.614;15.072;2023-07-22T13:39:39;29.06;54.53
73780;SHT30;62093;37.614;15.072;2023-07-22T13:42:05;29.04;54.49
73780;SHT30;62093;37.614;15.072;2023-07-22T13:44:31;29.04;54.46
73780;SHT30;62093;37.614;15.072;2023-07-22T13:46:57;29.07;54.41
73780;SHT30;62093;37.614;15.072;2023-07-22T13:49:23;29.07;54.41
73780;SHT30;62093;37.614;15.072;2023-07-22T13:51:49;29.07;54.42
73780;SHT30;62093;37.614;15.072;2023-07-22T13:54:15;29.07;54.35
73780;SHT30;62093;37.614;15.072;2023-07-22T13:56:41;29.08;54.37
73780;SHT30;62093;37.614;15.072;2023-07-22T13:59:09;29.10;54.32
73780;SHT30;62093;37.614;15.072;2023-07-22T14:01:35;29.10;54.34
73780;SHT30;62093;37.614;15.072;2023-07-22T14:04:01;29.11;54.32
73780;SHT30;62093;37.614;15.072;2023-07-22T14:06:27;29.12;54.27
73780;SHT30;62093;37.614;15.072;2023-07-22T14:08:53;29.11;54.25
73780;SHT30;62093;37.614;15.072;2023-07-22T14:11:19;29.10;54.24
73780;SHT30;62093;37.614;15.072;2023-07-22T14:13:45;29.11;54.21
73780;SHT30;62093;37.614;15.072;2023-07-22T14:16:11;29.12;54.20
73780;SHT30;62093;37.614;15.072;2023-07-22T14:18:37;29.14;54.20
73780;SHT30;62093;37.614;15.072;2023-07-22T14:21:03;29.14;54.18
73780;SHT30;62093;37.614;15.072;2023-07-22T14:23:30;29.14;54.13
73780;SHT30;62093;37.614;15.072;2023-07-22T14:25:56;29.14;54.15
73780;SHT30;62093;37.614;15.072;2023-07-22T14:28:22;29.15;54.15
73780;SHT30;62093;37.614;15.072;2023-07-22T14:30:48;29.15;54.11
73780;SHT30;62093;37.614;15.072;2023-07-22T14:33:14;29.15;54.03
73780;SHT30;62093;37.614;15.072;2023-07-22T14:35:40;29.15;54.11
73780;SHT30;62093;37.614;15.072;2023-07-22T14:38:06;29.17;54.06
73780;SHT30;62093;37.614;15.072;2023-07-22T14:40:32;29.20;54.06
73780;SHT30;62093;37.614;15.072;2023-07-22T14:42:58;29.17;54.06
73780;SHT30;62093;37.614;15.072;2023-07-22T14:45:24;29.18;54.01
73780;SHT30;62093;37.614;15.072;2023-07-22T14:47:50;29.20;53.99
73780;SHT30;62093;37.614;15.072;2023-07-22T14:50:16;29.18;53.98
73780;SHT30;62093;37.614;15.072;2023-07-22T14:52:42;29.20;53.93
73780;SHT30;62093;37.614;15.072;2023-07-22T14:55:08;29.18;53.91
73780;SHT30;62093;37.614;15.072;2023-07-22T14:57:34;29.21;53.91
73780;SHT30;62093;37.614;15.072;2023-07-22T15:00:00;29.21;53.92
73780;SHT30;62093;37.614;15.072;2023-07-22T15:02:26;29.20;53.88
73780;SHT30;62093;37.614;15.072;2023-07-22T15:04:52;29.21;53.84
73780;SHT30;62093;37.614;15.072;2023-07-22T15:07:18;29.22;53.84
73780;SHT30;62093;37.614;15.072;2023-07-22T15:09:44;29.22;53.84
73780;SHT30;62093;37.614;15.072;2023-07-22T15:12:10;29.25;53.84
73780;SHT30;62093;37.614;15.072;2023-07-22T15:14:36;29.25;53.84
73780;SHT30;62093;37.614;15.072;2023-07-22T15:17:03;29.25;53.79
73780;SHT30;62093;37.614;15.072;2023-07-22T15:19:29;29.24;53.80
73780;SHT30;62093;37.614;15.072;2023-07-22T15:21:55;29.27;53.75
73780;SHT30;62093;37.614;15.072;2023-07-22T15:24:21;29.24;53.78
73780;SHT30;62093;37.614;15.072;2023-07-22T15:26:47;29.22;53.79
73780;SHT30;62093;37.614;15.072;2023-07-22T15:29:13;29.25;53.74
73780;SHT30;62093;37.614;15.072;2023-07-22T15:31:39;29.31;53.66
73780;SHT30;62093;37.614;15.072;2023-07-22T15:34:05;29.31;53.57
73780;SHT30;62093;37.614;15.072;2023-07-22T15:36:31;29.37;53.49
73780;SHT30;62093;37.614;15.072;2023-07-22T15:38:57;29.42;53.35